ADDS METAR Data INFO
IDs: Format: Raw Decoded Include TAF

Data at: 0839 UTC 27 Jun 2017

KGEY 270753Z AUTO 00000KT 10SM CLR 21/01 A2978 RMK AO2 SLP038 T02110011 TSNO
KGEY 270653Z AUTO 00000KT 10SM CLR 23/M03 A2979 RMK AO2 SLP039 T02331028 403500100 TSNO
KGEY 270553Z AUTO VRB05KT 10SM CLR 26/M04 A2979 RMK AO2 SLP041 T02561044 10344 20250 55003 TSNO
KGEY 270453Z AUTO 09005KT 10SM CLR 26/M04 A2979 RMK AO2 SLP040 T02611044 TSNO
KGEY 270353Z AUTO 12003KT 10SM CLR 27/M04 A2980 RMK AO2 SLP047 T02721039 TSNO
KGEY 270253Z AUTO 10006KT 10SM CLR 29/M03 A2981 RMK AO2 SLP049 T02941033 58021 TSNO
KGEY 270153Z AUTO 15007KT 10SM CLR 33/M02 A2983 RMK AO2 SLP057 T03281017 TSNO
KGEY 270053Z AUTO 17011KT 10SM CLR 34/M05 A2985 RMK AO2 SLP069 T03391050 TSNO
KGEY 262353Z AUTO 16008KT 10SM CLR 33/M08 A2987 RMK AO2 SLP080 T03281083 10350 20283 57033 TSNO
KGEY 262253Z AUTO 17010KT 10SM CLR 34/M06 A2991 RMK AO2 SLP089 T03441056 TSNO
KGEY 262153Z AUTO VRB06KT 10SM CLR 34/M05 A2995 RMK AO2 SLP103 T03391050 TSNO
KGEY 262053Z AUTO 21005KT 10SM CLR 33/M04 A2998 RMK AO2 SLP115 T03281039 56030 TSNO
KGEY 261953Z AUTO 00000KT 10SM CLR 32/M01 A3001 RMK AO2 SLP123 T03171011 TSNO
KGEY 261853Z AUTO VRB03KT 10SM CLR 29/01 A3005 RMK AO2 SLP137 T02940011 TSNO
KGEY 261753Z AUTO 15005KT 10SM CLR 28/02 A3008 RMK AO2 SLP149 T02780017 10283 20100 58025 TSNO
KGEY 261653Z AUTO 18009KT 10SM CLR 27/02 A3012 RMK AO2 SLP160 T02670017 TSNO
KGEY 261553Z AUTO 15005KT 10SM CLR 23/03 A3014 RMK AO2 SLP168 T02330028 TSNO
KGEY 261453Z AUTO VRB03KT 10SM CLR 20/03 A3017 RMK AO2 SLP179 T02000033 58005 TSNO
KGEY 261353Z AUTO 00000KT 10SM CLR 17/03 A3018 RMK AO2 SLP188 T01670028 TSNO
KGEY 261253Z AUTO 00000KT 10SM CLR 12/03 A3019 RMK AO2 SLP192 T01220033 TSNO
KGEY 261153Z AUTO 00000KT 10SM CLR 10/02 A3018 RMK AO2 SLP195 T01000022 10194 20100 56003 TSNO
KGEY 261053Z AUTO 15003KT 10SM CLR 12/03 A3019 RMK AO2 SLP191 T01220028 TSNO
KGEY 260953Z AUTO 13003KT 10SM CLR 13/03 A3019 RMK AO2 SLP192 T01280028 TSNO
KGEY 260853Z AUTO 13003KT 10SM CLR 14/02 A3020 RMK AO2 SLP195 T01390017 58000 TSNO
KGEY 260753Z AUTO 00000KT 10SM CLR 16/01 A3020 RMK AO2 SLP194 T01560006 TSNO
KGEY 260653Z AUTO 25004KT 10SM CLR 16/M01 A3020 RMK AO2 SLP194 T01611006 402890106 TSNO
KGEY 260553Z AUTO 00000KT 10SM CLR 19/M01 A3020 RMK AO2 SLP193 T01891006 10283 20183 51005 TSNO
KGEY 260453Z AUTO 30006KT 10SM CLR 19/M01 A3019 RMK AO2 SLP191 T01941011 TSNO
KGEY 260353Z AUTO 32008KT 10SM CLR 23/M02 A3019 RMK AO2 SLP190 T02281017 TSNO
KGEY 260253Z AUTO 33010KT 10SM CLR 25/M02 A3018 RMK AO2 SLP186 T02501017 56001 TSNO
KGEY 260153Z AUTO 34011KT 10SM CLR 27/M01 A3018 RMK AO2 SLP187 T02671011 TSNO
KGEY 260053Z AUTO 33014KT 10SM CLR 28/M01 A3018 RMK AO2 SLP188 T02781006 TSNO
KGEY 252353Z AUTO 36012G18KT 10SM CLR 28/M01 A3018 RMK AO2 SLP191 T02781006 10289 20233 56015 TSNO
KGEY 252253Z AUTO 33016G20KT 10SM CLR 28/M02 A3020 RMK AO2 SLP196 T02831022 TSNO
KGEY 252153Z AUTO 10SM CLR 27/M01 A3021 RMK AO2 SLP201 T02721011 TSNO
KGEY 252053Z AUTO VRB03KT 10SM CLR 27/M01 A3023 RMK AO2 SLP207 T02671011 56018 TSNO


Page loaded:  08:39 UTC  |   01:39 AM Pacific  |   02:39 AM Mountain  |   03:39 AM Central  |   04:39 AM Eastern

 

ADVISORIES

FORECASTS

FORECASTS

OBSERVATIONS

USER TOOLS

ABOUT US